Weather at Medina Municipal Airport

Public forecast

Using degrees Fahrenheit for public forecast. Weather courtesy of forecast.io.

Closest aviation weather report (METAR) to Medina Municipal Airport

Closest report is Akron Executive Airport, 14.6 nm (27.1 km) ESE. Retrieved 2021/07/24 16:54 UTC (31 minutes ago):

KAKR 241654Z AUTO 21007KT 10SM CLR 26/19 A3005 RMK AO2 SLP167 T02560189

Closest aviation forecast (TAF) to Medina Municipal Airport

Closest forecast is Cleveland Hopkins International Airport, 17.3 nm (32.0 km) NNW. Retrieved 2021/07/24 12:36 UTC (5 hours ago):

TAF KCLE 241135Z 2412/2518 18005KT P6SM BKN040 TEMPO 2412/2413 3SM SHRA SCT035 FM241700 22008KT P6SM BKN090 FM250500 20010KT P6SM VCSH BKN040 FM250800 25006KT P6SM BKN020